createdAt,value
2018-02-07T00:01:18.634Z,-5.50
2018-02-07T00:04:28.641Z,-5.50
2018-02-07T00:07:38.583Z,-5.50
2018-02-07T00:10:48.508Z,-5.50
2018-02-07T00:13:58.470Z,-5.60
2018-02-07T00:17:08.597Z,-5.60
2018-02-07T00:20:18.647Z,-5.60
2018-02-07T00:23:28.789Z,-5.60
2018-02-07T00:26:38.887Z,-5.60
2018-02-07T00:29:49.181Z,-5.50
2018-02-07T00:32:59.281Z,-5.60
2018-02-07T00:36:10.140Z,-5.70
2018-02-07T00:39:20.733Z,-5.80
2018-02-07T00:42:30.539Z,-5.80
2018-02-07T00:45:41.463Z,-6.10
2018-02-07T00:48:51.940Z,-6.10
2018-02-07T00:52:02.847Z,-6.10
2018-02-07T00:55:13.081Z,-6.10
2018-02-07T00:58:22.992Z,-6.00
2018-02-07T01:01:33.731Z,-6.00
2018-02-07T01:04:43.976Z,-6.00
2018-02-07T01:07:54.145Z,-6.20
2018-02-07T01:11:04.106Z,-6.20
2018-02-07T01:14:14.460Z,-6.10
2018-02-07T01:17:25.121Z,-6.00
2018-02-07T01:20:34.955Z,-6.10
2018-02-07T01:23:45.352Z,-6.00
2018-02-07T01:26:55.091Z,-6.20
2018-02-07T01:30:04.923Z,-6.20
2018-02-07T01:33:14.849Z,-6.10
2018-02-07T01:36:25.069Z,-6.10
2018-02-07T01:39:35.144Z,-6.20
2018-02-07T01:42:45.247Z,-6.20
2018-02-07T01:45:55.643Z,-6.20
2018-02-07T01:49:05.516Z,-6.20
2018-02-07T01:52:15.404Z,-6.10
2018-02-07T01:55:25.323Z,-6.10
2018-02-07T01:58:35.407Z,-6.10
2018-02-07T02:01:45.310Z,-6.20
2018-02-07T02:04:55.952Z,-6.20
2018-02-07T02:08:06.349Z,-6.30
2018-02-07T02:11:16.256Z,-6.30
2018-02-07T02:14:27.125Z,-6.20
2018-02-07T02:17:37.069Z,-6.30
2018-02-07T02:20:46.953Z,-6.30
2018-02-07T02:23:56.876Z,-6.40
2018-02-07T02:27:07.135Z,-6.40
2018-02-07T02:30:16.962Z,-6.50
2018-02-07T02:33:26.918Z,-6.50
2018-02-07T02:36:41.441Z,-6.50
2018-02-07T02:39:51.532Z,-6.40
2018-02-07T02:43:01.544Z,-6.40
2018-02-07T02:46:11.698Z,-6.40
2018-02-07T02:49:21.525Z,-6.40
2018-02-07T02:52:31.394Z,-6.50
2018-02-07T02:55:41.966Z,-6.60
2018-02-07T02:58:52.129Z,-6.60
2018-02-07T03:02:02.686Z,-6.60
2018-02-07T03:05:13.677Z,-6.80
2018-02-07T03:08:23.944Z,-6.80
2018-02-07T03:11:35.024Z,-6.80
2018-02-07T03:14:45.576Z,-6.80
2018-02-07T03:17:55.596Z,-6.80
2018-02-07T03:21:05.064Z,-6.80
2018-02-07T03:24:15.247Z,-6.90
2018-02-07T03:27:26.005Z,-7.00
2018-02-07T03:30:36.067Z,-7.00
2018-02-07T03:33:46.147Z,-7.10
2018-02-07T03:36:56.281Z,-7.00
2018-02-07T03:40:06.197Z,-7.00
2018-02-07T03:43:17.019Z,-7.00
2018-02-07T03:46:27.704Z,-7.00
2018-02-07T03:49:37.709Z,-7.00
2018-02-07T03:52:47.708Z,-7.00
2018-02-07T03:55:57.415Z,-7.00
2018-02-07T03:59:07.627Z,-6.90
2018-02-07T04:02:17.635Z,-6.80
2018-02-07T04:05:27.430Z,-6.70
2018-02-07T04:08:37.232Z,-6.70
2018-02-07T04:11:48.197Z,-6.60
2018-02-07T04:14:59.326Z,-6.60
2018-02-07T04:18:10.138Z,-6.50
2018-02-07T04:21:20.423Z,-6.50
2018-02-07T04:24:30.787Z,-6.40
2018-02-07T04:27:40.877Z,-6.40
2018-02-07T04:30:51.911Z,-6.40
2018-02-07T04:34:01.871Z,-6.40
2018-02-07T04:37:11.699Z,-6.40
2018-02-07T04:40:21.493Z,-6.40
2018-02-07T04:43:31.347Z,-6.40
2018-02-07T04:46:41.268Z,-6.40
2018-02-07T04:49:51.123Z,-6.40
2018-02-07T04:53:01.226Z,-6.50
2018-02-07T04:56:11.241Z,-6.50
2018-02-07T04:59:22.094Z,-6.60
2018-02-07T05:02:32.433Z,-6.60
2018-02-07T05:05:42.386Z,-6.50
2018-02-07T05:08:52.801Z,-6.60
2018-02-07T05:12:02.773Z,-6.50
2018-02-07T05:15:12.809Z,-6.50
2018-02-07T05:18:23.987Z,-6.50
2018-02-07T05:21:33.862Z,-6.50
2018-02-07T05:24:43.780Z,-6.40
2018-02-07T05:27:53.869Z,-6.40
2018-02-07T05:31:04.058Z,-6.40
2018-02-07T05:34:14.184Z,-6.30
2018-02-07T05:37:24.030Z,-6.40
2018-02-07T05:40:34.157Z,-6.40
2018-02-07T05:43:44.031Z,-6.30
2018-02-07T05:46:53.943Z,-6.30
2018-02-07T05:50:03.489Z,-6.30
2018-02-07T05:53:13.821Z,-6.30
2018-02-07T05:56:23.950Z,-6.30
2018-02-07T05:59:34.172Z,-6.30
2018-02-07T06:02:44.925Z,-6.30
2018-02-07T06:05:55.192Z,-6.30
2018-02-07T06:09:04.589Z,-6.30
2018-02-07T06:12:15.845Z,-6.30
2018-02-07T06:15:26.036Z,-6.30
2018-02-07T06:18:35.959Z,-6.30
2018-02-07T06:21:46.114Z,-6.40
2018-02-07T06:24:56.772Z,-6.40
2018-02-07T06:28:06.959Z,-6.40
2018-02-07T06:31:16.834Z,-6.40
2018-02-07T06:34:26.934Z,-6.40
2018-02-07T06:37:37.188Z,-6.40
2018-02-07T06:40:47.144Z,-6.50
2018-02-07T06:43:57.190Z,-6.60
2018-02-07T06:47:07.337Z,-6.90
2018-02-07T06:50:17.147Z,-6.80
2018-02-07T06:53:27.236Z,-6.70
2018-02-07T06:56:37.191Z,-6.80
2018-02-07T06:59:47.011Z,-6.70
2018-02-07T07:02:57.044Z,-6.80
2018-02-07T07:06:06.833Z,-6.80
2018-02-07T07:09:16.938Z,-6.80
2018-02-07T07:12:27.837Z,-6.80
2018-02-07T07:15:38.022Z,-6.80
2018-02-07T07:18:48.254Z,-6.90
2018-02-07T07:21:58.305Z,-6.80
2018-02-07T07:25:08.312Z,-6.90
2018-02-07T07:28:20.125Z,-6.80
2018-02-07T07:31:30.431Z,-6.80
2018-02-07T07:34:40.986Z,-6.70
2018-02-07T07:37:51.356Z,-6.70
2018-02-07T07:41:01.401Z,-6.80
2018-02-07T07:44:11.595Z,-6.70
2018-02-07T07:47:21.847Z,-6.70
2018-02-07T07:50:31.968Z,-6.80
2018-02-07T07:53:42.155Z,-6.70
2018-02-07T07:56:52.262Z,-6.50
2018-02-07T08:00:02.121Z,-6.50
2018-02-07T08:03:12.354Z,-6.50
2018-02-07T08:06:22.175Z,-6.40
2018-02-07T08:09:32.930Z,-6.20
2018-02-07T08:12:43.114Z,-6.30
2018-02-07T08:15:52.936Z,-6.10
2018-02-07T08:19:03.594Z,-6.10
2018-02-07T08:22:13.533Z,-6.10
2018-02-07T08:25:23.448Z,-6.20
2018-02-07T08:28:33.381Z,-6.10
2018-02-07T08:31:44.424Z,-6.00
2018-02-07T08:34:54.620Z,-6.00
2018-02-07T08:38:04.313Z,-5.90
2018-02-07T08:41:14.683Z,-5.80
2018-02-07T08:44:24.541Z,-5.70
2018-02-07T08:47:35.364Z,-5.50
2018-02-07T08:50:46.601Z,-5.40
2018-02-07T08:53:56.636Z,-5.40
2018-02-07T08:57:07.964Z,-5.30
2018-02-07T09:00:18.300Z,-5.30
2018-02-07T09:03:29.211Z,-5.20
2018-02-07T09:06:39.707Z,-5.20
2018-02-07T09:09:51.054Z,-5.00
2018-02-07T09:13:00.878Z,-5.10
2018-02-07T09:16:10.852Z,-5.00
2018-02-07T09:19:20.923Z,-4.90
2018-02-07T09:22:30.958Z,-4.80
2018-02-07T09:25:40.945Z,-4.70
2018-02-07T09:28:50.781Z,-4.70
2018-02-07T09:32:01.485Z,-4.60
2018-02-07T09:35:11.905Z,-4.60
2018-02-07T09:38:21.590Z,-4.50
2018-02-07T09:41:32.683Z,-4.40
2018-02-07T09:44:42.751Z,-4.40
2018-02-07T09:47:52.854Z,-4.40
2018-02-07T09:51:04.102Z,-4.20
2018-02-07T09:54:14.551Z,-4.20
2018-02-07T09:57:24.780Z,-4.10
2018-02-07T10:00:34.611Z,-4.00
2018-02-07T10:03:44.616Z,-4.00
2018-02-07T10:06:55.380Z,-3.80
2018-02-07T10:10:05.976Z,-3.80
2018-02-07T10:13:16.129Z,-3.70
2018-02-07T10:16:25.656Z,-3.60
2018-02-07T10:19:35.989Z,-3.50
2018-02-07T10:22:45.913Z,-3.50
2018-02-07T10:25:56.449Z,-3.40
2018-02-07T10:29:06.947Z,-3.30
2018-02-07T10:32:16.836Z,-3.20
2018-02-07T10:35:26.946Z,-3.10
2018-02-07T10:38:37.798Z,-3.10
2018-02-07T10:41:48.950Z,-3.10
2018-02-07T10:44:59.901Z,-3.00
2018-02-07T10:48:10.548Z,-2.90
2018-02-07T10:51:21.860Z,-2.90
2018-02-07T10:54:31.706Z,-2.90
2018-02-07T10:57:41.730Z,-2.80
2018-02-07T11:00:51.552Z,-2.60
2018-02-07T11:04:01.598Z,-2.50
2018-02-07T11:07:12.909Z,-2.30
2018-02-07T11:10:23.154Z,-2.40
2018-02-07T11:13:32.960Z,-2.30
2018-02-07T11:16:43.986Z,-2.10
2018-02-07T11:19:53.995Z,-2.20
2018-02-07T11:23:04.023Z,-2.10
2018-02-07T11:26:15.057Z,-1.90
2018-02-07T11:29:25.467Z,-1.90
2018-02-07T11:32:36.288Z,-1.70
2018-02-07T11:35:46.505Z,-1.80
2018-02-07T11:38:56.625Z,-1.70
2018-02-07T11:42:06.576Z,-1.60
2018-02-07T11:45:16.386Z,-1.50
2018-02-07T11:48:26.211Z,-1.40
2018-02-07T11:51:36.310Z,-1.30
2018-02-07T11:54:46.448Z,-1.20
2018-02-07T11:57:56.301Z,-1.20
2018-02-07T12:01:06.233Z,-1.10
2018-02-07T12:04:16.451Z,-1.00
2018-02-07T12:07:26.345Z,-1.10
2018-02-07T12:10:37.225Z,-1.00
2018-02-07T12:13:47.654Z,-1.10
2018-02-07T12:16:57.802Z,-1.00
2018-02-07T12:20:08.023Z,-1.00
2018-02-07T12:23:17.831Z,-0.90
2018-02-07T12:26:27.868Z,-0.90
2018-02-07T12:29:38.607Z,-0.80
2018-02-07T12:32:49.666Z,-0.80
2018-02-07T12:36:00.071Z,-0.80
2018-02-07T12:39:10.063Z,-0.70
2018-02-07T12:42:20.269Z,-0.80
2018-02-07T12:45:30.264Z,-0.80
2018-02-07T12:48:39.983Z,-0.80
2018-02-07T12:51:50.048Z,-0.70
2018-02-07T12:54:59.890Z,-0.70
2018-02-07T12:58:09.748Z,-0.70
2018-02-07T13:01:19.791Z,-0.60
2018-02-07T13:04:29.630Z,-0.60
2018-02-07T13:07:41.240Z,-0.60
2018-02-07T13:10:51.851Z,-0.60
2018-02-07T13:14:02.949Z,-0.70
2018-02-07T13:17:14.052Z,-0.60
2018-02-07T13:20:24.251Z,-0.60
2018-02-07T13:23:34.493Z,-0.40
2018-02-07T13:26:44.427Z,-0.30
2018-02-07T13:29:54.699Z,-0.30
2018-02-07T13:33:04.854Z,-0.40
2018-02-07T13:36:14.692Z,-0.50
2018-02-07T13:39:25.101Z,-0.70
2018-02-07T13:42:35.248Z,-0.80
2018-02-07T13:45:45.044Z,-0.70
2018-02-07T13:48:58.213Z,-0.70
2018-02-07T13:52:10.500Z,-0.80
2018-02-07T13:55:21.110Z,-0.90
2018-02-07T13:58:30.992Z,-0.90
2018-02-07T14:01:40.893Z,-1.00
2018-02-07T14:04:51.249Z,-0.80
2018-02-07T14:08:05.314Z,-0.80
2018-02-07T14:11:16.016Z,-0.90
2018-02-07T14:14:26.193Z,-1.00
2018-02-07T14:17:36.426Z,-1.30
2018-02-07T14:20:47.449Z,-1.20
2018-02-07T14:23:57.446Z,-1.20
2018-02-07T14:27:07.375Z,-1.20
2018-02-07T14:30:18.504Z,-1.10
2018-02-07T14:33:28.352Z,-1.10
2018-02-07T14:36:39.493Z,-1.10
2018-02-07T14:39:51.213Z,-1.10
2018-02-07T14:43:02.884Z,-1.30
2018-02-07T14:46:13.719Z,-1.30
2018-02-07T14:49:25.308Z,-1.20
2018-02-07T14:52:35.993Z,-1.20
2018-02-07T14:55:46.219Z,-1.20
2018-02-07T14:58:56.152Z,-1.20
2018-02-07T15:02:06.220Z,-1.30
2018-02-07T15:05:16.522Z,-1.30
2018-02-07T15:08:26.328Z,-1.20
2018-02-07T15:11:36.752Z,-1.30
2018-02-07T15:14:46.624Z,-1.30
2018-02-07T15:17:56.847Z,-1.20
2018-02-07T15:21:07.915Z,-1.20
2018-02-07T15:24:19.009Z,-1.20
2018-02-07T15:27:30.054Z,-1.10
2018-02-07T15:30:40.439Z,-1.10
2018-02-07T15:33:50.469Z,-1.10
2018-02-07T15:37:00.559Z,-1.20
2018-02-07T15:40:11.451Z,-1.10
2018-02-07T15:43:21.041Z,-1.20
2018-02-07T15:46:31.098Z,-1.10
2018-02-07T15:49:42.914Z,-1.20
2018-02-07T15:52:52.852Z,-1.20
2018-02-07T15:56:02.583Z,-1.20
2018-02-07T15:59:12.541Z,-1.30
2018-02-07T16:02:22.575Z,-1.40
2018-02-07T16:05:32.993Z,-1.40
2018-02-07T16:08:44.184Z,-1.50
2018-02-07T16:11:54.292Z,-1.50
2018-02-07T16:15:04.336Z,-1.50
2018-02-07T16:18:14.910Z,-1.50
2018-02-07T16:21:24.707Z,-1.60
2018-02-07T16:24:34.727Z,-1.60
2018-02-07T16:27:46.779Z,-1.60
2018-02-07T16:30:57.848Z,-1.60
2018-02-07T16:34:08.982Z,-1.70
2018-02-07T16:37:19.499Z,-1.80
2018-02-07T16:40:29.288Z,-1.80
2018-02-07T16:43:39.353Z,-1.80
2018-02-07T16:46:49.475Z,-1.80
2018-02-07T16:50:00.195Z,-1.90
2018-02-07T16:53:11.345Z,-2.00
2018-02-07T16:56:21.494Z,-2.00
2018-02-07T16:59:31.631Z,-2.10
2018-02-07T17:02:42.592Z,-2.10
2018-02-07T17:05:53.120Z,-2.10
2018-02-07T17:09:04.306Z,-2.30
2018-02-07T17:12:14.920Z,-2.20
2018-02-07T17:15:24.656Z,-2.50
2018-02-07T17:18:34.958Z,-2.40
2018-02-07T17:21:45.475Z,-2.40
2018-02-07T17:24:56.463Z,-2.30
2018-02-07T17:28:07.035Z,-2.20
2018-02-07T17:31:18.250Z,-2.10
2018-02-07T17:34:30.220Z,-2.10
2018-02-07T17:37:41.108Z,-2.00
2018-02-07T17:40:52.556Z,-2.00
2018-02-07T17:44:02.944Z,-2.00
2018-02-07T17:47:13.334Z,-2.00
2018-02-07T17:50:23.023Z,-2.00
2018-02-07T17:53:34.438Z,-1.90
2018-02-07T17:56:45.236Z,-1.90
2018-02-07T17:59:56.258Z,-1.90
2018-02-07T18:03:06.169Z,-1.90
2018-02-07T18:06:17.323Z,-1.80
2018-02-07T18:09:27.174Z,-1.80
2018-02-07T18:12:37.341Z,-1.80
2018-02-07T18:15:47.283Z,-1.70
2018-02-07T18:18:57.950Z,-1.70
2018-02-07T18:22:08.357Z,-1.70
2018-02-07T18:25:18.407Z,-1.70
2018-02-07T18:28:29.324Z,-1.60
2018-02-07T18:31:39.185Z,-1.60
2018-02-07T18:34:49.388Z,-1.60
2018-02-07T18:37:59.434Z,-1.70
2018-02-07T18:41:09.338Z,-1.60
2018-02-07T18:44:19.461Z,-1.70
2018-02-07T18:47:29.435Z,-1.70
2018-02-07T18:50:39.334Z,-1.70
2018-02-07T18:53:49.949Z,-1.60
2018-02-07T18:56:59.814Z,-1.60
2018-02-07T19:00:10.942Z,-1.60
2018-02-07T19:03:20.892Z,-1.60
2018-02-07T19:06:30.504Z,-1.60
2018-02-07T19:09:41.137Z,-1.60
2018-02-07T19:12:51.234Z,-1.60
2018-02-07T19:16:01.023Z,-1.60
2018-02-07T19:19:11.069Z,-1.60
2018-02-07T19:22:21.128Z,-1.60
2018-02-07T19:25:31.160Z,-1.60
2018-02-07T19:28:42.314Z,-1.70
2018-02-07T19:31:53.229Z,-1.70
2018-02-07T19:35:04.231Z,-1.60
2018-02-07T19:38:14.302Z,-1.60
2018-02-07T19:41:24.107Z,-1.60
2018-02-07T19:44:34.015Z,-1.60
2018-02-07T19:47:43.881Z,-1.60
2018-02-07T19:50:53.562Z,-1.60
2018-02-07T19:54:03.644Z,-1.50
2018-02-07T19:57:13.607Z,-1.60
2018-02-07T20:00:24.571Z,-1.60
2018-02-07T20:03:34.610Z,-1.60
2018-02-07T20:06:44.719Z,-1.50
2018-02-07T20:09:54.714Z,-1.50
2018-02-07T20:13:05.477Z,-1.50
2018-02-07T20:16:16.530Z,-1.50
2018-02-07T20:19:26.733Z,-1.50
2018-02-07T20:22:37.028Z,-1.50
2018-02-07T20:25:47.004Z,-1.50
2018-02-07T20:28:57.122Z,-1.50
2018-02-07T20:32:07.239Z,-1.50
2018-02-07T20:35:17.443Z,-1.50
2018-02-07T20:42:03.166Z,-1.50
2018-02-07T20:45:13.975Z,-1.50
2018-02-07T20:48:24.284Z,-1.50
2018-02-07T20:51:35.005Z,-1.60
2018-02-07T20:54:44.879Z,-1.50
2018-02-07T20:57:55.091Z,-1.50
2018-02-07T21:01:05.056Z,-1.50
2018-02-07T21:04:14.893Z,-1.50
2018-02-07T21:07:24.978Z,-1.50
2018-02-07T21:10:35.265Z,-1.50
2018-02-07T21:13:45.092Z,-1.50
2018-02-07T21:16:55.027Z,-1.50
2018-02-07T21:20:05.160Z,-1.50
2018-02-07T21:23:15.484Z,-1.50
2018-02-07T21:26:25.415Z,-1.50
2018-02-07T21:29:36.728Z,-1.60
2018-02-07T21:32:46.996Z,-1.60
2018-02-07T21:35:57.442Z,-1.60
2018-02-07T21:39:07.521Z,-1.50
2018-02-07T21:42:17.443Z,-1.50
2018-02-07T21:45:27.295Z,-1.60
2018-02-07T21:48:37.441Z,-1.50
2018-02-07T21:51:47.540Z,-1.50
2018-02-07T21:54:58.153Z,-1.60
2018-02-07T21:58:08.173Z,-1.60
2018-02-07T22:01:17.962Z,-1.60
2018-02-07T22:04:27.841Z,-1.60
2018-02-07T22:07:37.683Z,-1.60
2018-02-07T22:10:47.701Z,-1.60
2018-02-07T22:13:57.601Z,-1.60
2018-02-07T22:17:07.813Z,-1.60
2018-02-07T22:20:17.905Z,-1.60
2018-02-07T22:23:27.753Z,-1.60
2018-02-07T22:26:37.989Z,-1.60
2018-02-07T22:29:47.902Z,-1.60
2018-02-07T22:32:57.969Z,-1.60
2018-02-07T22:36:08.828Z,-1.70
2018-02-07T22:39:19.004Z,-1.70
2018-02-07T22:42:29.068Z,-1.70
2018-02-07T22:45:40.150Z,-1.70
2018-02-07T22:48:51.254Z,-1.70
2018-02-07T22:52:01.746Z,-1.70
2018-02-07T22:55:11.951Z,-1.70
2018-02-07T22:58:21.735Z,-1.70
2018-02-07T23:01:32.230Z,-1.70
2018-02-07T23:04:43.107Z,-1.70
2018-02-07T23:07:53.216Z,-1.70
2018-02-07T23:11:03.393Z,-1.70
2018-02-07T23:14:13.572Z,-1.70
2018-02-07T23:17:24.755Z,-1.80
2018-02-07T23:20:35.285Z,-1.80
2018-02-07T23:23:45.414Z,-1.80
2018-02-07T23:26:55.504Z,-1.80
2018-02-07T23:30:05.524Z,-1.90
2018-02-07T23:33:15.556Z,-1.90
2018-02-07T23:36:25.566Z,-1.90
2018-02-07T23:39:35.445Z,-1.90
2018-02-07T23:42:45.879Z,-1.90
2018-02-07T23:45:55.832Z,-1.90
2018-02-07T23:49:05.603Z,-1.90
2018-02-07T23:52:15.793Z,-1.90
2018-02-07T23:55:25.779Z,-1.90
2018-02-07T23:58:35.610Z,-1.90
